createdAt,value
2023-04-07T00:00:08.510Z,20.90
2023-04-07T00:02:36.943Z,20.67
2023-04-07T00:05:05.200Z,20.22
2023-04-07T00:07:42.180Z,20.08
2023-04-07T00:10:17.982Z,19.73
2023-04-07T00:12:48.959Z,19.57
2023-04-07T00:15:16.856Z,19.77
2023-04-07T00:17:44.852Z,19.52
2023-04-07T00:20:13.661Z,20.16
2023-04-07T00:22:41.699Z,20.22
2023-04-07T00:25:10.033Z,19.12
2023-04-07T00:27:39.421Z,19.02
2023-04-07T00:30:08.720Z,18.78
2023-04-07T00:32:37.214Z,18.98
2023-04-07T00:35:05.537Z,19.27
2023-04-07T00:37:35.571Z,18.80
2023-04-07T00:40:04.180Z,18.63
2023-04-07T00:42:32.236Z,18.31
2023-04-07T00:45:04.503Z,19.06
2023-04-07T00:47:32.671Z,19.51
2023-04-07T00:50:04.464Z,20.34
2023-04-07T00:52:34.596Z,21.89
2023-04-07T00:55:02.481Z,22.23
2023-04-07T00:57:30.408Z,22.62
2023-04-07T00:59:58.869Z,21.91
2023-04-07T01:02:35.574Z,22.39
2023-04-07T01:05:14.399Z,24.71
2023-04-07T01:07:55.131Z,24.44
2023-04-07T01:10:34.582Z,23.37
2023-04-07T01:13:09.887Z,23.08
2023-04-07T01:15:41.744Z,22.71
2023-04-07T01:18:22.170Z,22.10
2023-04-07T01:20:53.751Z,22.37
2023-04-07T01:23:32.918Z,22.01
2023-04-07T01:26:20.001Z,21.75
2023-04-07T01:29:05.535Z,22.21
2023-04-07T01:31:38.468Z,22.64
2023-04-07T01:34:10.694Z,22.91
2023-04-07T01:36:38.867Z,23.13
2023-04-07T01:39:14.320Z,23.03
2023-04-07T01:41:45.648Z,23.09
2023-04-07T01:44:16.039Z,22.03
2023-04-07T01:46:45.586Z,21.94
2023-04-07T01:49:15.354Z,22.29
2023-04-07T01:51:44.177Z,22.90
2023-04-07T01:54:12.219Z,22.83
2023-04-07T01:56:40.086Z,23.45
2023-04-07T01:59:07.991Z,23.45
2023-04-07T02:01:37.415Z,23.84
2023-04-07T02:04:13.888Z,25.19
2023-04-07T02:06:49.198Z,23.49
2023-04-07T02:09:21.420Z,23.36
2023-04-07T02:11:52.190Z,23.00
2023-04-07T02:14:24.436Z,23.64
2023-04-07T02:16:54.179Z,23.43
2023-04-07T02:19:23.934Z,23.09
2023-04-07T02:21:53.260Z,24.46
2023-04-07T02:24:22.792Z,25.52
2023-04-07T02:26:50.725Z,24.79
2023-04-07T02:29:18.650Z,24.89
2023-04-07T02:31:48.538Z,24.55
2023-04-07T02:34:17.178Z,24.49
2023-04-07T02:36:46.501Z,24.19
2023-04-07T02:39:14.433Z,23.92
2023-04-07T02:41:42.459Z,23.38
2023-04-07T02:44:10.383Z,22.28
2023-04-07T02:46:38.318Z,22.47
2023-04-07T02:49:06.474Z,22.27
2023-04-07T02:51:34.494Z,22.18
2023-04-07T02:54:09.218Z,21.73
2023-04-07T02:56:37.128Z,21.89
2023-04-07T02:59:07.834Z,20.37
2023-04-07T03:01:36.417Z,20.23
2023-04-07T03:04:07.215Z,19.13
2023-04-07T03:06:35.306Z,20.98
2023-04-07T03:09:03.258Z,21.15
2023-04-07T03:11:32.565Z,22.69
2023-04-07T03:14:00.525Z,24.96
2023-04-07T03:16:28.526Z,24.60
2023-04-07T03:18:59.288Z,22.51
2023-04-07T03:21:29.008Z,17.23
2023-04-07T03:23:56.864Z,14.02
2023-04-07T03:26:24.837Z,10.68
2023-04-07T03:28:54.069Z,10.13
2023-04-07T03:31:22.042Z,9.74
2023-04-07T03:33:50.964Z,9.72
2023-04-07T03:36:19.397Z,10.50
2023-04-07T03:38:49.108Z,9.99
2023-04-07T03:41:17.052Z,9.79
2023-04-07T03:43:44.883Z,9.16
2023-04-07T03:46:16.795Z,9.09
2023-04-07T03:48:47.342Z,9.05
2023-04-07T03:51:15.305Z,9.41
2023-04-07T03:53:43.108Z,9.28
2023-04-07T03:56:13.501Z,9.05
2023-04-07T03:58:42.751Z,9.17
2023-04-07T04:01:10.790Z,8.60
2023-04-07T04:03:40.170Z,8.26
2023-04-07T04:06:08.270Z,8.27
2023-04-07T04:08:36.129Z,8.32
2023-04-07T04:11:03.984Z,8.25
2023-04-07T04:13:32.190Z,7.85
2023-04-07T04:16:00.273Z,8.02
2023-04-07T04:18:28.121Z,8.35
2023-04-07T04:20:57.357Z,7.91
2023-04-07T04:23:25.335Z,8.43
2023-04-07T04:25:53.192Z,8.30
2023-04-07T04:28:21.086Z,8.77
2023-04-07T04:30:49.172Z,10.15
2023-04-07T04:33:18.709Z,10.46
2023-04-07T04:35:47.303Z,10.02
2023-04-07T04:38:22.543Z,9.90
2023-04-07T04:40:50.446Z,9.50
2023-04-07T04:43:20.531Z,9.93
2023-04-07T04:45:48.756Z,10.23
2023-04-07T04:48:17.378Z,10.62
2023-04-07T04:50:45.272Z,11.78
2023-04-07T04:53:13.181Z,12.43
2023-04-07T04:55:47.009Z,12.67
2023-04-07T04:58:14.916Z,13.09
2023-04-07T05:00:42.794Z,14.30
2023-04-07T05:03:11.087Z,15.65
2023-04-07T05:05:39.535Z,15.97
2023-04-07T05:08:12.271Z,16.07
2023-04-07T05:10:41.938Z,16.42
2023-04-07T05:13:12.642Z,16.83
2023-04-07T05:15:42.602Z,16.52
2023-04-07T05:18:10.519Z,16.28
2023-04-07T05:20:38.411Z,15.93
2023-04-07T05:23:06.609Z,16.87
2023-04-07T05:25:34.775Z,16.41
2023-04-07T05:28:04.832Z,15.74
2023-04-07T05:30:32.753Z,15.73
2023-04-07T05:33:00.794Z,15.61
2023-04-07T05:35:31.655Z,15.76
2023-04-07T05:37:59.604Z,15.43
2023-04-07T05:40:27.490Z,15.56
2023-04-07T05:42:55.605Z,14.96
2023-04-07T05:45:25.186Z,14.40
2023-04-07T05:47:53.173Z,14.75
2023-04-07T05:50:21.136Z,14.96
2023-04-07T05:52:49.061Z,14.80
2023-04-07T05:55:17.267Z,14.23
2023-04-07T05:57:45.130Z,13.87
2023-04-07T06:00:19.772Z,14.22
2023-04-07T06:02:49.211Z,15.05
2023-04-07T06:05:17.453Z,14.39
2023-04-07T06:07:45.374Z,14.69
2023-04-07T06:10:13.296Z,14.74
2023-04-07T06:12:41.310Z,14.03
2023-04-07T06:15:09.784Z,14.25
2023-04-07T06:17:37.737Z,14.55
2023-04-07T06:20:08.794Z,14.60
2023-04-07T06:22:36.697Z,14.73
2023-04-07T06:25:04.916Z,14.40
2023-04-07T06:27:33.125Z,14.15
2023-04-07T06:30:01.094Z,14.77
2023-04-07T06:32:29.500Z,15.10
2023-04-07T06:34:57.664Z,14.79
2023-04-07T06:37:27.114Z,13.89
2023-04-07T06:39:55.125Z,13.85
2023-04-07T06:42:23.048Z,14.30
2023-04-07T06:44:50.966Z,14.31
2023-04-07T06:47:18.906Z,14.85
2023-04-07T06:49:46.811Z,14.16
2023-04-07T06:52:14.695Z,14.15
2023-04-07T06:54:44.332Z,14.13
2023-04-07T06:57:12.917Z,14.43
2023-04-07T06:59:40.853Z,14.66
2023-04-07T07:02:09.229Z,14.20
2023-04-07T07:04:37.471Z,14.13
2023-04-07T07:07:05.458Z,14.24
2023-04-07T07:09:33.375Z,14.78
2023-04-07T07:12:04.315Z,14.51
2023-04-07T07:14:32.408Z,14.41
2023-04-07T07:17:00.290Z,14.15
2023-04-07T07:19:30.909Z,14.54
2023-04-07T07:21:58.833Z,14.89
2023-04-07T07:24:26.743Z,14.91
2023-04-07T07:26:54.655Z,14.65
2023-04-07T07:29:24.035Z,14.75
2023-04-07T07:31:52.515Z,14.64
2023-04-07T07:34:21.193Z,14.84
2023-04-07T07:36:49.062Z,14.64
2023-04-07T07:39:16.945Z,14.48
2023-04-07T07:41:45.303Z,14.77
2023-04-07T07:44:13.208Z,13.98
2023-04-07T07:46:42.540Z,13.81
2023-04-07T07:49:10.480Z,13.43
2023-04-07T07:51:39.145Z,13.28
2023-04-07T07:54:07.196Z,12.99
2023-04-07T07:56:35.146Z,13.78
2023-04-07T07:59:06.446Z,13.92
2023-04-07T08:01:34.449Z,13.76
2023-04-07T08:04:03.908Z,13.33
2023-04-07T08:06:32.716Z,13.73
2023-04-07T08:09:00.652Z,13.15
2023-04-07T08:11:28.872Z,13.09
2023-04-07T08:13:56.697Z,12.98
2023-04-07T08:16:24.905Z,13.72
2023-04-07T08:18:52.851Z,13.44
2023-04-07T08:21:22.237Z,16.82
2023-04-07T08:23:50.492Z,15.28
2023-04-07T08:26:18.640Z,14.47
2023-04-07T08:28:46.503Z,13.55
2023-04-07T08:31:17.402Z,14.85
2023-04-07T08:33:45.354Z,16.66
2023-04-07T08:36:13.596Z,14.42
2023-04-07T08:38:42.939Z,13.75
2023-04-07T08:41:14.385Z,13.14
2023-04-07T08:43:47.145Z,14.62
2023-04-07T08:46:17.285Z,14.87
2023-04-07T08:48:46.157Z,14.86
2023-04-07T08:51:15.756Z,13.75
2023-04-07T08:53:51.193Z,14.17
2023-04-07T08:56:19.831Z,15.95
2023-04-07T08:58:50.038Z,14.96
2023-04-07T09:01:19.940Z,13.90
2023-04-07T09:03:50.629Z,13.94
2023-04-07T09:06:19.208Z,14.11
2023-04-07T09:08:48.462Z,14.02
2023-04-07T09:11:16.415Z,14.19
2023-04-07T09:13:44.358Z,14.52
2023-04-07T09:16:14.089Z,14.22
2023-04-07T09:18:42.743Z,14.33
2023-04-07T09:21:11.482Z,14.28
2023-04-07T09:23:40.977Z,14.74
2023-04-07T09:26:24.863Z,14.86
2023-04-07T09:28:55.845Z,15.29
2023-04-07T09:31:26.305Z,14.65
2023-04-07T09:33:55.545Z,15.70
2023-04-07T09:36:27.170Z,16.72
2023-04-07T09:38:55.064Z,15.28
2023-04-07T09:41:24.973Z,14.85
2023-04-07T09:43:58.252Z,15.36
2023-04-07T09:46:26.544Z,14.96
2023-04-07T09:49:06.281Z,14.93
2023-04-07T09:51:35.120Z,15.06
2023-04-07T09:54:03.324Z,14.68
2023-04-07T09:56:33.150Z,14.07
2023-04-07T09:59:01.372Z,15.43
2023-04-07T10:01:29.594Z,15.50
2023-04-07T10:04:01.146Z,16.78
2023-04-07T10:06:32.397Z,19.33
2023-04-07T10:09:00.405Z,16.66
2023-04-07T10:11:28.437Z,16.20
2023-04-07T10:13:57.866Z,17.05
2023-04-07T10:16:27.185Z,16.18
2023-04-07T10:18:56.177Z,15.98
2023-04-07T10:21:24.496Z,15.86
2023-04-07T10:24:01.618Z,15.43
2023-04-07T10:26:34.648Z,14.98
2023-04-07T10:29:09.510Z,14.78
2023-04-07T10:31:39.965Z,15.19
2023-04-07T10:34:07.918Z,14.74
2023-04-07T10:36:36.771Z,14.73
2023-04-07T10:39:24.177Z,14.23
2023-04-07T10:41:53.273Z,15.09
2023-04-07T10:44:48.353Z,14.89
2023-04-07T10:47:16.415Z,14.97
2023-04-07T10:50:28.512Z,14.65
2023-04-07T10:53:08.329Z,14.27
2023-04-07T10:55:42.354Z,14.68
2023-04-07T10:58:24.256Z,13.99
2023-04-07T11:01:20.713Z,14.77
2023-04-07T11:03:58.327Z,13.94
2023-04-07T11:06:27.124Z,14.43
2023-04-07T11:08:55.583Z,14.15
2023-04-07T11:11:42.404Z,14.59
2023-04-07T11:14:10.444Z,14.20
2023-04-07T11:16:45.718Z,14.28
2023-04-07T11:19:13.624Z,14.34
2023-04-07T11:21:41.511Z,14.38
2023-04-07T11:24:09.371Z,14.37
2023-04-07T11:26:41.904Z,14.69
2023-04-07T11:29:10.499Z,13.96
2023-04-07T11:31:39.968Z,13.98
2023-04-07T11:34:08.808Z,14.57
2023-04-07T11:36:42.072Z,14.39
2023-04-07T11:39:21.353Z,14.81
2023-04-07T11:41:51.531Z,13.84
2023-04-07T11:44:19.546Z,13.55
2023-04-07T11:46:56.446Z,14.18
2023-04-07T11:49:26.117Z,13.79
2023-04-07T11:52:00.893Z,13.92
2023-04-07T11:54:28.943Z,14.54
2023-04-07T11:56:56.841Z,14.14
2023-04-07T11:59:26.704Z,13.67
2023-04-07T12:01:57.713Z,13.82
2023-04-07T12:04:26.210Z,13.83
2023-04-07T12:06:54.228Z,13.28
2023-04-07T12:09:30.871Z,14.07
2023-04-07T12:11:59.866Z,14.09
2023-04-07T12:14:28.667Z,14.07
2023-04-07T12:16:58.872Z,13.60
2023-04-07T12:19:28.553Z,13.90
2023-04-07T12:21:57.066Z,13.91
2023-04-07T12:24:25.077Z,13.97
2023-04-07T12:26:53.056Z,14.12
2023-04-07T12:29:21.064Z,14.34
2023-04-07T12:31:51.115Z,13.76
2023-04-07T12:34:20.868Z,14.30
2023-04-07T12:36:48.854Z,14.03
2023-04-07T12:39:17.333Z,13.87
2023-04-07T12:41:46.099Z,14.14
2023-04-07T12:44:14.284Z,14.78
2023-04-07T12:46:43.196Z,14.61
2023-04-07T12:49:11.184Z,13.54
2023-04-07T12:51:40.621Z,14.00
2023-04-07T12:54:08.730Z,14.26
2023-04-07T12:56:36.696Z,13.90
2023-04-07T12:59:05.037Z,13.83
2023-04-07T13:01:35.338Z,13.54
2023-04-07T13:04:03.621Z,13.65
2023-04-07T13:06:32.282Z,14.04
2023-04-07T13:09:01.564Z,14.45
2023-04-07T13:11:29.462Z,13.30
2023-04-07T13:13:59.180Z,13.66
2023-04-07T13:16:28.678Z,13.22
2023-04-07T13:18:57.286Z,13.91
2023-04-07T13:23:56.060Z,13.36
2023-04-07T13:26:26.179Z,13.81
2023-04-07T13:28:54.075Z,13.61
2023-04-07T13:31:23.676Z,14.44
2023-04-07T13:33:51.726Z,13.36
2023-04-07T13:36:21.232Z,13.69
2023-04-07T13:38:50.911Z,13.60
2023-04-07T13:41:18.882Z,13.14
2023-04-07T13:43:48.323Z,13.31
2023-04-07T13:46:27.884Z,12.71
2023-04-07T13:48:56.688Z,12.80
2023-04-07T13:51:24.656Z,13.35
2023-04-07T13:53:52.606Z,13.28
2023-04-07T13:56:20.461Z,13.29
2023-04-07T13:58:49.700Z,13.51
2023-04-07T14:01:17.627Z,12.57
2023-04-07T14:03:46.269Z,12.45
2023-04-07T14:06:14.254Z,12.69
2023-04-07T14:08:42.237Z,12.55
2023-04-07T14:11:10.144Z,11.87
2023-04-07T14:13:38.263Z,11.88
2023-04-07T14:16:08.206Z,11.97
2023-04-07T14:18:37.203Z,12.09
2023-04-07T14:21:05.701Z,12.73
2023-04-07T14:23:37.560Z,12.43
2023-04-07T14:26:06.078Z,11.77
2023-04-07T14:28:33.991Z,11.96
2023-04-07T14:31:02.042Z,11.98
2023-04-07T14:33:31.524Z,11.83
2023-04-07T14:35:59.440Z,12.63
2023-04-07T14:38:29.165Z,12.75
2023-04-07T14:43:27.916Z,12.62
2023-04-07T14:45:55.838Z,12.78
2023-04-07T14:48:23.780Z,12.45
2023-04-07T14:51:06.079Z,12.30
2023-04-07T14:53:36.754Z,12.60
2023-04-07T14:56:05.834Z,13.48
2023-04-07T14:58:37.239Z,12.14
2023-04-07T15:01:06.563Z,12.12
2023-04-07T15:03:35.588Z,11.56
2023-04-07T15:06:07.783Z,12.03
2023-04-07T15:08:35.709Z,11.51
2023-04-07T15:11:05.435Z,12.49
2023-04-07T15:13:33.360Z,12.47
2023-04-07T15:16:08.724Z,13.01
2023-04-07T15:18:36.806Z,12.43
2023-04-07T15:21:06.638Z,12.39
2023-04-07T15:23:34.952Z,12.02
2023-04-07T15:26:02.838Z,12.15
2023-04-07T15:28:30.801Z,11.87
2023-04-07T15:30:58.883Z,12.18
2023-04-07T15:33:27.189Z,12.03
2023-04-07T15:35:55.122Z,12.05
2023-04-07T15:38:24.384Z,12.07
2023-04-07T15:40:52.287Z,11.84
2023-04-07T15:43:20.134Z,12.68
2023-04-07T15:45:48.994Z,12.04
2023-04-07T15:48:17.627Z,13.06
2023-04-07T15:50:45.616Z,13.07
2023-04-07T15:53:13.940Z,12.73
2023-04-07T15:55:44.238Z,12.40
2023-04-07T15:58:12.276Z,13.19
2023-04-07T16:00:41.196Z,17.41
2023-04-07T16:03:09.434Z,14.24
2023-04-07T16:05:39.143Z,16.00
2023-04-07T16:08:07.116Z,16.71
2023-04-07T16:10:35.059Z,19.85
2023-04-07T16:13:05.709Z,12.43
2023-04-07T16:15:40.048Z,11.93
2023-04-07T16:18:11.966Z,12.93
2023-04-07T16:20:39.895Z,14.54
2023-04-07T16:23:07.828Z,16.47
2023-04-07T16:25:36.626Z,19.03
2023-04-07T16:28:05.894Z,12.48
2023-04-07T16:30:33.787Z,10.82
2023-04-07T16:33:01.825Z,10.86
2023-04-07T16:35:30.941Z,10.94
2023-04-07T16:38:03.697Z,10.88
2023-04-07T16:40:31.918Z,10.86
2023-04-07T16:42:59.907Z,11.16
2023-04-07T16:45:29.590Z,11.13
2023-04-07T16:47:57.614Z,11.99
2023-04-07T16:50:25.534Z,14.22
2023-04-07T16:52:56.024Z,11.20
2023-04-07T16:55:24.305Z,10.70
2023-04-07T16:57:52.201Z,10.43
2023-04-07T17:00:21.220Z,10.02
2023-04-07T17:02:50.683Z,11.09
2023-04-07T17:05:19.102Z,10.56
2023-04-07T17:07:47.037Z,10.16
2023-04-07T17:10:15.415Z,10.06
2023-04-07T17:12:43.350Z,9.99
2023-04-07T17:15:11.905Z,10.17
2023-04-07T17:17:39.898Z,10.36
2023-04-07T17:20:10.813Z,10.55
2023-04-07T17:22:38.907Z,11.46
2023-04-07T17:25:07.735Z,9.90
2023-04-07T17:27:35.990Z,10.97
2023-04-07T17:30:05.222Z,10.26
2023-04-07T17:32:33.332Z,10.04
2023-04-07T17:35:01.329Z,9.97
2023-04-07T17:37:30.906Z,10.41
2023-04-07T17:40:00.235Z,14.18
2023-04-07T17:42:28.340Z,24.73
2023-04-07T17:44:56.820Z,25.56
2023-04-07T17:47:29.160Z,20.14
2023-04-07T17:49:59.850Z,31.15
2023-04-07T17:52:29.554Z,44.47
2023-04-07T17:54:59.220Z,36.94
2023-04-07T17:57:27.244Z,22.50
2023-04-07T17:59:55.417Z,19.72
2023-04-07T18:02:23.569Z,13.96
2023-04-07T18:04:51.735Z,11.05
2023-04-07T18:07:19.689Z,9.89
2023-04-07T18:09:47.606Z,14.69
2023-04-07T18:12:16.905Z,33.47
2023-04-07T18:14:44.848Z,53.25
2023-04-07T18:17:12.801Z,35.69
2023-04-07T18:19:40.706Z,26.82
2023-04-07T18:22:09.827Z,14.38
2023-04-07T18:24:38.200Z,8.31
2023-04-07T18:27:06.036Z,8.41
2023-04-07T18:29:35.394Z,7.94
2023-04-07T18:32:03.264Z,9.12
2023-04-07T18:34:31.175Z,11.98
2023-04-07T18:36:59.048Z,15.64
2023-04-07T18:39:28.201Z,14.32
2023-04-07T18:41:57.801Z,15.84
2023-04-07T18:44:26.043Z,12.76
2023-04-07T18:46:55.483Z,11.51
2023-04-07T18:49:23.442Z,10.11
2023-04-07T18:51:52.156Z,10.10
2023-04-07T18:54:21.199Z,10.98
2023-04-07T18:56:49.121Z,11.13
2023-04-07T18:59:20.281Z,9.81
2023-04-07T19:01:48.227Z,9.98
2023-04-07T19:04:17.508Z,10.62
2023-04-07T19:06:46.007Z,10.42
2023-04-07T19:09:14.434Z,9.41
2023-04-07T19:11:42.700Z,9.58
2023-04-07T19:14:10.625Z,9.30
2023-04-07T19:16:38.629Z,9.17
2023-04-07T19:19:06.561Z,9.02
2023-04-07T19:21:35.913Z,8.40
2023-04-07T19:24:03.829Z,8.25
2023-04-07T19:26:31.814Z,8.74
2023-04-07T19:29:00.014Z,9.04
2023-04-07T19:31:27.936Z,8.50
2023-04-07T19:33:55.922Z,8.96
2023-04-07T19:36:23.985Z,9.09
2023-04-07T19:38:53.247Z,8.96
2023-04-07T19:41:21.184Z,9.03
2023-04-07T19:43:49.538Z,8.92
2023-04-07T19:46:17.667Z,8.73
2023-04-07T19:48:46.241Z,8.58
2023-04-07T19:51:14.188Z,9.54
2023-04-07T19:53:42.184Z,11.12
2023-04-07T19:56:14.043Z,12.72
2023-04-07T19:58:42.057Z,11.46
2023-04-07T20:01:16.720Z,10.05
2023-04-07T20:03:45.367Z,9.63
2023-04-07T20:06:15.132Z,10.88
2023-04-07T20:08:43.276Z,13.78
2023-04-07T20:11:13.398Z,16.37
2023-04-07T20:13:41.950Z,14.93
2023-04-07T20:16:10.838Z,15.60
2023-04-07T20:18:38.853Z,15.56
2023-04-07T20:21:06.985Z,18.38
2023-04-07T20:23:35.435Z,25.33
2023-04-07T20:26:06.997Z,18.28
2023-04-07T20:28:36.359Z,13.85
2023-04-07T20:31:04.348Z,12.37
2023-04-07T20:33:32.271Z,12.20
2023-04-07T20:36:00.344Z,11.99
2023-04-07T20:38:29.135Z,12.29
2023-04-07T20:40:57.047Z,12.28
2023-04-07T20:43:24.942Z,12.25
2023-04-07T20:45:54.183Z,12.26
2023-04-07T20:48:23.955Z,12.51
2023-04-07T20:50:52.815Z,15.04
2023-04-07T20:53:23.789Z,18.42
2023-04-07T20:55:51.854Z,28.72
2023-04-07T20:58:19.790Z,40.34
2023-04-07T21:00:47.782Z,49.20
2023-04-07T21:03:17.445Z,41.30
2023-04-07T21:05:45.862Z,27.55
2023-04-07T21:08:14.704Z,16.23
2023-04-07T21:10:42.917Z,14.43
2023-04-07T21:13:10.823Z,13.84
2023-04-07T21:15:38.789Z,14.14
2023-04-07T21:18:06.781Z,13.70
2023-04-07T21:20:36.908Z,13.80
2023-04-07T21:23:05.407Z,15.35
2023-04-07T21:25:33.328Z,24.27
2023-04-07T21:28:01.203Z,28.51
2023-04-07T21:30:29.080Z,24.44
2023-04-07T21:32:56.993Z,22.47
2023-04-07T21:35:27.856Z,17.79
2023-04-07T21:37:57.357Z,14.97
2023-04-07T21:40:25.255Z,15.63
2023-04-07T21:42:55.875Z,16.36
2023-04-07T21:45:23.715Z,16.22
2023-04-07T21:47:51.633Z,15.55
2023-04-07T21:50:19.898Z,15.86
2023-04-07T21:52:50.686Z,16.10
2023-04-07T21:55:20.665Z,17.19
2023-04-07T21:57:50.155Z,18.91
2023-04-07T22:00:18.532Z,19.16
2023-04-07T22:02:46.817Z,18.59
2023-04-07T22:05:15.967Z,18.24
2023-04-07T22:07:45.486Z,18.66
2023-04-07T22:10:13.825Z,18.68
2023-04-07T22:12:43.277Z,18.71
2023-04-07T22:15:13.297Z,20.50
2023-04-07T22:17:41.476Z,23.12
2023-04-07T22:20:12.311Z,27.44
2023-04-07T22:22:41.860Z,31.10
2023-04-07T22:25:10.431Z,30.23
2023-04-07T22:27:38.317Z,29.99
2023-04-07T22:30:10.820Z,25.25
2023-04-07T22:32:38.733Z,17.29
2023-04-07T22:35:10.794Z,16.25
2023-04-07T22:37:38.648Z,16.90
2023-04-07T22:40:07.733Z,15.58
2023-04-07T22:42:35.634Z,16.70
2023-04-07T22:45:03.588Z,17.98
2023-04-07T22:47:32.917Z,21.43
2023-04-07T22:50:00.997Z,39.26
2023-04-07T22:52:28.914Z,35.01
2023-04-07T22:54:57.821Z,25.85
2023-04-07T22:57:26.318Z,17.51
2023-04-07T22:59:54.230Z,20.59
2023-04-07T23:02:22.327Z,18.38
2023-04-07T23:04:52.021Z,15.78
2023-04-07T23:07:19.923Z,16.35
2023-04-07T23:09:47.798Z,17.18
2023-04-07T23:12:15.647Z,32.92
2023-04-07T23:14:43.538Z,29.62
2023-04-07T23:17:12.302Z,18.12
2023-04-07T23:19:40.321Z,15.00
2023-04-07T23:22:09.593Z,15.31
2023-04-07T23:24:37.497Z,15.92
2023-04-07T23:27:05.806Z,15.26
2023-04-07T23:29:33.641Z,14.46
2023-04-07T23:32:01.536Z,14.16
2023-04-07T23:34:29.400Z,12.83
2023-04-07T23:36:57.319Z,13.22
2023-04-07T23:39:26.594Z,12.79
2023-04-07T23:41:54.483Z,12.47
2023-04-07T23:44:22.377Z,12.41
2023-04-07T23:46:50.235Z,12.81
2023-04-07T23:49:18.260Z,12.94
2023-04-07T23:51:46.268Z,13.58
2023-04-07T23:54:14.342Z,13.63
2023-04-07T23:56:43.927Z,14.59
2023-04-07T23:59:13.305Z,15.34
